KEFD/EFD METAR and TAF weather

Enter ICAO airport designator
Station Type Date Time Source
KEFD METAR 2022/06/27 16:54 UTC NOAA

KEFD 271654Z 04009KT 10SM SCT090 34/18 A3008 `


Station Type Date Time Source
KEFD Decoded METAR 2022/06/27 16:54 UTC NOAA

Houston / Ellington, TX, United States (KEFD) 29-36N 095-10W
Jun 27, 2022 - 12:54 PM EDT / 2022.06.27 1654 UTC
Wind: from the NE (040 degrees) at 10 MPH (9 KT):0
Visibility: 10 mile(s):0
Sky conditions: partly cloudy
Temperature: 93 F (34 C)
Heat index: 94.6 F (34.8 C):1
Dew Point: 64 F (18 C)
Relative Humidity: 38%
Pressure (altimeter): 30.08 in. Hg (1018 hPa)
ob: KEFD 271654Z 04009KT 10SM SCT090 34/18 A3008 `
cycle: 17

Station Type Date Time Source
KEFD TAF 2022/06/27 11:30 UTC NOAA

TAF
AMD KEFD 271120Z 2711/2810 21006KT 9999 FEW040 QNH3001INS
TEMPO 2712/2715 VRB12G18KT 9000 -TSRA BKN040CB
BECMG 2721/2722 05010G15KT 9000 -SHRA BKN040 QNH2999INS
TEMPO 2721/2722 VRB12G18KT 9000 -TSRA BKN040CB BKN085
BECMG 2800/2801 04010G15KT 9999 NSW SCT040 QNH2998INS
BECMG 2803/2804 03006KT 9999 SCT030 QNH3001INS TX32/2718Z TN25/2712Z

Example: see airport list